Time;durP1;ratioP1;P1;durP2;ratioP2;P2;SDS_P1;SDS_P2;PMS_P1;PMS_P2;Temp;Humidity;BMP_temperature;BMP_pressure;BME280_temperature;BME280_humidity;BME280_pressure;Samples;Min_cycle;Max_cycle;Signal;HPM_P1;HPM_P2
2022/03/29 00:02:14;;;;;;;30.10;16.60;;;6.00;89.10;;;;;;5058411;28;20029;-79
2022/03/29 00:04:40;;;;;;;30.73;17.98;;;6.10;89.10;;;;;;5046667;28;20377;-79
2022/03/29 00:07:08;;;;;;;28.27;16.27;;;6.10;88.90;;;;;;5052281;28;20159;-78
2022/03/29 00:09:33;;;;;;;27.70;16.77;;;6.00;88.90;;;;;;5054225;28;20391;-79
2022/03/29 00:11:59;;;;;;;27.05;16.80;;;6.00;89.00;;;;;;5046201;28;20042;-79
2022/03/29 00:14:25;;;;;;;34.22;16.13;;;6.00;89.10;;;;;;5049804;28;20040;-78
2022/03/29 00:16:50;;;;;;;29.63;16.02;;;6.00;89.10;;;;;;5048360;28;20103;-78
2022/03/29 00:19:16;;;;;;;23.17;15.77;;;6.00;89.30;;;;;;5038698;28;20109;-78
2022/03/29 00:21:41;;;;;;;27.42;16.70;;;6.00;89.30;;;;;;5047353;28;20384;-78
2022/03/29 00:24:07;;;;;;;37.65;17.55;;;6.10;89.40;;;;;;5041552;28;20032;-79
2022/03/29 00:26:33;;;;;;;27.73;16.08;;;6.10;89.50;;;;;;5049278;28;20055;-79
2022/03/29 00:28:59;;;;;;;33.10;16.40;;;6.10;89.30;;;;;;5042635;28;20132;-79
2022/03/29 00:31:24;;;;;;;24.55;15.77;;;6.10;89.30;;;;;;5065703;28;20032;-79
2022/03/29 00:33:50;;;;;;;29.35;16.42;;;6.10;89.20;;;;;;5044275;28;20029;-79
2022/03/29 00:36:16;;;;;;;25.58;16.73;;;6.00;89.50;;;;;;5048115;28;20033;-79
2022/03/29 00:38:42;;;;;;;28.77;16.63;;;6.10;89.60;;;;;;5049169;28;20029;-79
2022/03/29 00:41:08;;;;;;;32.58;16.50;;;6.00;89.30;;;;;;5059375;28;20103;-79
2022/03/29 00:43:34;;;;;;;31.92;16.65;;;6.00;89.40;;;;;;5053062;28;20124;-79
2022/03/29 00:45:59;;;;;;;27.95;16.05;;;6.00;89.50;;;;;;5054600;28;20368;-79
2022/03/29 00:48:25;;;;;;;25.58;16.00;;;6.00;89.60;;;;;;5048132;28;20029;-79
2022/03/29 00:50:52;;;;;;;29.92;16.52;;;6.00;89.40;;;;;;5047156;28;20443;-78
2022/03/29 00:53:18;;;;;;;27.85;16.98;;;6.00;89.30;;;;;;5048384;28;20054;-78
2022/03/29 00:55:44;;;;;;;29.05;16.90;;;6.00;89.30;;;;;;5050582;28;20036;-78
2022/03/29 00:58:11;;;;;;;31.48;17.73;;;6.00;89.40;;;;;;5046802;28;20985;-78
2022/03/29 01:00:38;;;;;;;30.30;16.98;;;5.90;89.50;;;;;;5046940;28;20052;-78
2022/03/29 01:03:04;;;;;;;32.67;18.08;;;5.90;89.70;;;;;;5046916;28;20025;-78
2022/03/29 01:05:30;;;;;;;29.60;16.83;;;5.90;89.90;;;;;;5048274;28;20076;-79
2022/03/29 01:07:57;;;;;;;30.55;18.13;;;5.90;89.80;;;;;;5047909;28;20040;-78
2022/03/29 01:10:24;;;;;;;29.00;17.08;;;5.90;90.00;;;;;;5047322;28;20064;-78
2022/03/29 01:12:53;;;;;;;32.75;17.40;;;6.00;90.00;;;;;;5051780;28;20033;-78
2022/03/29 01:15:19;;;;;;;31.42;17.45;;;5.90;89.90;;;;;;5048065;28;20292;-78
2022/03/29 01:17:49;;;;;;;31.60;17.73;;;5.90;90.00;;;;;;5040472;28;20499;-78
2022/03/29 01:20:20;;;;;;;30.30;18.38;;;5.90;89.90;;;;;;5052439;28;20392;-78
2022/03/29 01:22:48;;;;;;;38.25;19.33;;;5.90;90.00;;;;;;5044697;28;20585;-78
2022/03/29 01:25:34;;;;;;;34.55;18.48;;;6.00;89.90;;;;;;5048034;28;20025;-78
2022/03/29 01:28:02;;;;;;;30.48;17.42;;;5.90;89.70;;;;;;5041932;28;20029;-78
2022/03/29 01:30:28;;;;;;;35.80;18.33;;;5.90;89.80;;;;;;5050500;28;20051;-78
2022/03/29 01:32:53;;;;;;;36.50;18.63;;;5.90;89.70;;;;;;5052839;28;20563;-78
2022/03/29 01:35:22;;;;;;;33.28;19.95;;;5.90;89.70;;;;;;5044288;28;20040;-78
2022/03/29 01:37:49;;;;;;;31.75;18.50;;;5.80;89.60;;;;;;5070642;28;20044;-78
2022/03/29 01:40:18;;;;;;;35.90;19.10;;;5.80;89.70;;;;;;5055785;28;20016;-78
2022/03/29 01:42:52;;;;;;;37.78;18.67;;;5.90;89.80;;;;;;5052870;28;20385;-78
2022/03/29 01:45:21;;;;;;;35.15;19.35;;;5.90;89.60;;;;;;5068048;28;20051;-78
2022/03/29 01:47:47;;;;;;;31.92;19.45;;;5.90;89.60;;;;;;5072460;28;20085;-78
2022/03/29 01:50:13;;;;;;;28.80;17.73;;;5.80;89.50;;;;;;5066027;28;20029;-78
2022/03/29 01:52:47;;;;;;;30.45;18.33;;;5.90;89.50;;;;;;5052657;28;20031;-78
2022/03/29 01:55:16;;;;;;;33.55;18.15;;;5.80;89.50;;;;;;5064488;28;20503;-78
2022/03/29 01:57:41;;;;;;;38.20;19.80;;;5.90;89.50;;;;;;5058361;28;20079;-78
2022/03/29 02:02:55;;;;;;;29.75;17.75;;;5.90;89.30;;;;;;5052096;28;20040;-78
2022/03/29 02:05:21;;;;;;;32.10;18.88;;;5.90;88.90;;;;;;5072606;28;20016;-78
2022/03/29 02:07:47;;;;;;;42.47;20.00;;;5.80;88.90;;;;;;5065825;28;20090;-78
2022/03/29 02:10:20;;;;;;;30.08;18.88;;;5.80;88.70;;;;;;5058351;28;20032;-78
2022/03/29 02:12:47;;;;;;;33.83;19.23;;;5.90;88.50;;;;;;5051913;28;20025;-78
2022/03/29 02:15:13;;;;;;;38.92;18.38;;;5.80;88.20;;;;;;5049338;28;20033;-81
2022/03/29 02:17:40;;;;;;;35.63;18.60;;;5.90;88.20;;;;;;5062737;28;20033;-79
2022/03/29 02:20:06;;;;;;;35.55;19.45;;;6.00;88.30;;;;;;5038849;28;20233;-79
2022/03/29 02:22:33;;;;;;;35.00;18.77;;;5.90;88.00;;;;;;5048870;28;20036;-78
2022/03/29 02:24:58;;;;;;;33.00;18.48;;;5.90;87.90;;;;;;5053338;28;20028;-78
2022/03/29 02:27:24;;;;;;;33.22;18.77;;;5.90;87.50;;;;;;5043361;28;20502;-78
2022/03/29 02:29:49;;;;;;;32.22;18.95;;;6.00;87.70;;;;;;5046641;28;20033;-78
2022/03/29 02:32:15;;;;;;;29.55;16.25;;;5.90;87.60;;;;;;5066212;28;20096;-78
2022/03/29 02:34:40;;;;;;;33.38;19.63;;;5.90;87.60;;;;;;5044439;28;20032;-78
2022/03/29 02:37:06;;;;;;;35.08;19.33;;;5.90;87.60;;;;;;5049798;28;20043;-78
2022/03/29 02:39:31;;;;;;;35.47;20.42;;;5.90;87.60;;;;;;5052321;28;20070;-79
2022/03/29 02:41:57;;;;;;;35.35;19.52;;;5.90;87.60;;;;;;5046305;28;21074;-78
2022/03/29 02:44:23;;;;;;;32.97;19.30;;;5.90;87.60;;;;;;5075358;28;20103;-78
2022/03/29 02:46:48;;;;;;;33.05;18.35;;;5.90;87.70;;;;;;5075223;28;20040;-78
2022/03/29 02:49:14;;;;;;;34.67;19.08;;;5.90;87.50;;;;;;5065392;28;20032;-78
2022/03/29 02:51:39;;;;;;;31.70;17.67;;;5.90;87.60;;;;;;5056872;28;20059;-78
2022/03/29 02:54:05;;;;;;;35.50;18.45;;;5.90;87.40;;;;;;5053502;28;20379;-78
2022/03/29 02:56:30;;;;;;;38.97;18.95;;;5.90;87.50;;;;;;5048720;28;20068;-78
2022/03/29 02:58:56;;;;;;;35.60;17.75;;;5.90;87.40;;;;;;5054455;28;20025;-78
2022/03/29 03:01:22;;;;;;;37.45;19.45;;;5.90;87.40;;;;;;5060908;28;20047;-78
2022/03/29 03:03:47;;;;;;;30.58;17.67;;;5.90;87.30;;;;;;5037577;28;20480;-78
2022/03/29 03:06:12;;;;;;;32.58;18.63;;;5.90;87.10;;;;;;5062964;28;20050;-78
2022/03/29 03:08:38;;;;;;;31.40;17.85;;;5.90;87.10;;;;;;5073412;28;20094;-78
2022/03/29 03:11:04;;;;;;;36.28;18.75;;;6.00;87.10;;;;;;5058447;28;20045;-78
2022/03/29 03:13:29;;;;;;;31.38;17.73;;;5.90;86.90;;;;;;5081292;28;20047;-78
2022/03/29 03:15:55;;;;;;;33.15;17.83;;;5.90;86.80;;;;;;5063240;28;20472;-78
2022/03/29 03:18:20;;;;;;;38.65;18.55;;;5.90;86.80;;;;;;5066386;28;20028;-78
2022/03/29 03:20:46;;;;;;;33.28;17.00;;;6.00;86.90;;;;;;5065862;28;20021;-78
2022/03/29 03:23:12;;;;;;;38.20;17.98;;;5.90;86.60;;;;;;5072005;28;20047;-79
2022/03/29 03:25:38;;;;;;;31.92;17.55;;;5.90;86.60;;;;;;5066969;28;20106;-79
2022/03/29 03:28:04;;;;;;;32.35;16.35;;;5.90;86.60;;;;;;5069771;28;20476;-79
2022/03/29 03:30:30;;;;;;;30.92;17.92;;;6.00;86.50;;;;;;5049836;28;20029;-79
2022/03/29 03:32:55;;;;;;;32.20;17.27;;;6.00;86.70;;;;;;5048746;28;20495;-79
2022/03/29 03:35:21;;;;;;;31.85;17.88;;;6.00;86.60;;;;;;5054741;28;20033;-79
2022/03/29 03:37:48;;;;;;;28.33;17.80;;;6.00;86.50;;;;;;5071763;28;20048;-79
2022/03/29 03:40:13;;;;;;;32.00;16.73;;;5.90;86.40;;;;;;5074098;28;20043;-78
2022/03/29 03:42:40;;;;;;;38.78;18.52;;;6.00;86.50;;;;;;5072143;28;20036;-78
2022/03/29 03:45:06;;;;;;;35.67;19.23;;;6.00;86.60;;;;;;5065550;28;20017;-78
2022/03/29 03:47:32;;;;;;;33.67;17.95;;;6.00;86.60;;;;;;5046361;28;20036;-78
2022/03/29 03:49:59;;;;;;;37.22;18.02;;;6.00;86.60;;;;;;5041922;28;20021;-79
2022/03/29 03:52:25;;;;;;;39.03;19.38;;;6.00;86.50;;;;;;5066232;28;20070;-79
2022/03/29 03:54:51;;;;;;;35.28;19.33;;;6.00;86.60;;;;;;5075115;28;20040;-79
2022/03/29 03:57:18;;;;;;;30.63;17.63;;;6.00;86.50;;;;;;5063197;28;20036;-79
2022/03/29 03:59:45;;;;;;;36.55;19.50;;;6.00;86.40;;;;;;5059997;28;20438;-79
2022/03/29 04:02:10;;;;;;;36.53;19.50;;;6.00;86.30;;;;;;5072582;28;20016;-78
2022/03/29 04:04:36;;;;;;;34.65;20.30;;;6.00;86.40;;;;;;5065620;28;20033;-79
2022/03/29 04:07:01;;;;;;;33.90;20.02;;;6.00;86.50;;;;;;5053653;28;20070;-78
2022/03/29 04:09:28;;;;;;;37.03;19.08;;;6.00;86.60;;;;;;5072773;28;20082;-78
2022/03/29 04:11:53;;;;;;;36.35;19.50;;;6.00;86.60;;;;;;5049517;28;20044;-78
2022/03/29 04:14:19;;;;;;;39.47;19.75;;;6.00;86.50;;;;;;5055515;28;20039;-78
2022/03/29 04:16:44;;;;;;;39.25;19.15;;;6.00;86.40;;;;;;5069699;28;20108;-78
2022/03/29 04:19:10;;;;;;;34.65;19.70;;;6.00;86.40;;;;;;5073144;28;20499;-79
2022/03/29 04:21:35;;;;;;;37.45;19.63;;;6.00;86.50;;;;;;5060210;28;20033;-78
2022/03/29 04:24:01;;;;;;;35.67;19.42;;;6.00;86.50;;;;;;5054978;28;20035;-78
2022/03/29 04:26:26;;;;;;;43.35;20.67;;;6.00;86.70;;;;;;5055159;28;20038;-79
2022/03/29 04:28:52;;;;;;;35.72;20.77;;;6.10;86.80;;;;;;5079763;28;20497;-78
2022/03/29 04:31:17;;;;;;;37.55;20.40;;;6.10;86.80;;;;;;5056686;28;20492;-78
2022/03/29 04:33:45;;;;;;;36.60;19.23;;;6.00;86.90;;;;;;5062538;28;20119;-78
2022/03/29 04:36:10;;;;;;;38.13;21.88;;;6.00;87.00;;;;;;5044795;28;20040;-78
2022/03/29 04:38:36;;;;;;;42.55;21.73;;;6.00;87.10;;;;;;5043670;28;20020;-78
2022/03/29 04:41:01;;;;;;;37.30;20.27;;;6.00;87.30;;;;;;5069294;28;20040;-79
2022/03/29 04:43:27;;;;;;;39.95;19.73;;;6.00;87.30;;;;;;5055355;28;20024;-79
2022/03/29 04:45:53;;;;;;;40.45;19.52;;;5.90;87.30;;;;;;5065094;28;20055;-78
2022/03/29 04:48:19;;;;;;;42.65;20.23;;;5.90;87.40;;;;;;5065863;28;20033;-79
2022/03/29 04:50:44;;;;;;;38.05;21.40;;;5.90;87.50;;;;;;5047752;28;20032;-79
2022/03/29 04:53:10;;;;;;;37.22;20.98;;;5.80;87.60;;;;;;5063501;28;20029;-79
2022/03/29 04:55:36;;;;;;;40.60;21.75;;;5.90;87.70;;;;;;5055628;28;20519;-79
2022/03/29 04:58:02;;;;;;;41.63;22.70;;;5.80;87.80;;;;;;5044606;28;20048;-78
2022/03/29 05:00:28;;;;;;;33.85;21.02;;;5.80;87.90;;;;;;5063376;28;20028;-78
2022/03/29 05:02:53;;;;;;;36.35;20.15;;;5.90;87.80;;;;;;5051364;28;20024;-78
2022/03/29 05:05:19;;;;;;;38.95;21.27;;;5.90;87.80;;;;;;5057844;28;20049;-78
2022/03/29 05:07:45;;;;;;;38.80;20.85;;;5.90;87.90;;;;;;5065870;28;20066;-79
2022/03/29 05:10:11;;;;;;;37.80;20.63;;;5.90;87.80;;;;;;5066975;28;20039;-79
2022/03/29 05:13:03;;;;;;;32.72;20.40;;;5.90;87.80;;;;;;5069737;28;20471;-80
2022/03/29 05:15:29;;;;;;;36.83;20.00;;;5.90;87.90;;;;;;5041743;28;20039;-79
2022/03/29 05:17:54;;;;;;;35.47;20.77;;;5.90;87.90;;;;;;5070631;28;20016;-79
2022/03/29 05:20:20;;;;;;;38.15;21.30;;;6.00;88.00;;;;;;5046292;28;20029;-78
2022/03/29 05:22:46;;;;;;;25.65;9.88;;;6.00;88.00;;;;;;5038972;28;20032;-78
2022/03/29 05:25:17;;;;;;;27.80;7.22;;;5.80;86.60;;;;;;5052559;28;20025;-79
2022/03/29 05:27:43;;;;;;;22.05;5.50;;;5.80;85.80;;;;;;5049122;28;20040;-79
2022/03/29 05:30:09;;;;;;;24.50;5.47;;;5.70;84.90;;;;;;5047644;28;20028;-78
2022/03/29 05:32:35;;;;;;;24.08;5.32;;;5.70;84.40;;;;;;5051356;28;20029;-79
2022/03/29 05:35:01;;;;;;;20.48;4.05;;;5.70;84.10;;;;;;5045831;28;20388;-78
2022/03/29 05:37:27;;;;;;;20.73;4.45;;;5.60;84.00;;;;;;5047237;28;20520;-78
2022/03/29 05:39:52;;;;;;;25.00;4.22;;;5.60;84.10;;;;;;5069286;28;20086;-78
2022/03/29 05:42:18;;;;;;;21.33;3.70;;;5.60;83.70;;;;;;5063392;28;20017;-80
2022/03/29 05:44:43;;;;;;;25.52;4.35;;;5.60;83.60;;;;;;5055294;28;20391;-79
2022/03/29 05:49:53;;;;;;;29.60;4.28;;;5.60;83.20;;;;;;5062154;28;20086;-79
2022/03/29 05:52:21;;;;;;;22.23;4.22;;;5.60;83.10;;;;;;5049719;28;20111;-78
2022/03/29 05:54:47;;;;;;;22.63;4.00;;;5.60;83.20;;;;;;5063794;28;20027;-78
2022/03/29 05:57:16;;;;;;;26.23;4.22;;;5.60;83.20;;;;;;5064704;28;20024;-78
2022/03/29 05:59:42;;;;;;;22.92;4.25;;;5.60;83.20;;;;;;5069492;28;20483;-79
2022/03/29 06:02:08;;;;;;;18.60;3.55;;;5.50;83.40;;;;;;5092464;28;20028;-79
2022/03/29 06:04:35;;;;;;;23.13;3.90;;;5.60;83.50;;;;;;5066224;28;20024;-79
2022/03/29 06:07:01;;;;;;;22.77;4.30;;;5.60;83.30;;;;;;5063591;28;20237;-78
2022/03/29 06:09:27;;;;;;;23.63;4.28;;;5.60;83.50;;;;;;5046967;28;20021;-78
2022/03/29 06:11:53;;;;;;;20.02;3.80;;;5.60;83.40;;;;;;5053619;28;20021;-79
2022/03/29 06:14:18;;;;;;;24.33;4.20;;;5.70;83.20;;;;;;5049219;28;20453;-78
2022/03/29 06:16:44;;;;;;;17.90;3.97;;;5.60;83.10;;;;;;5044828;28;20372;-78
2022/03/29 06:19:10;;;;;;;23.05;3.28;;;5.50;82.90;;;;;;5045306;28;20207;-78
2022/03/29 06:21:37;;;;;;;19.55;3.72;;;5.60;82.80;;;;;;5070883;28;20108;-78
2022/03/29 06:24:06;;;;;;;28.83;4.55;;;5.60;82.80;;;;;;5066663;28;20029;-78
2022/03/29 06:26:31;;;;;;;20.92;3.50;;;5.50;82.10;;;;;;5070509;28;20029;-78
2022/03/29 06:28:58;;;;;;;20.40;3.95;;;5.40;82.50;;;;;;5063659;28;20033;-78
2022/03/29 06:31:24;;;;;;;21.00;3.83;;;5.40;82.50;;;;;;5050231;28;20124;-78
2022/03/29 06:33:49;;;;;;;19.92;3.78;;;5.40;82.60;;;;;;5042532;28;20111;-79
2022/03/29 06:36:16;;;;;;;19.75;4.22;;;5.40;82.60;;;;;;5062581;28;20052;-79
2022/03/29 06:38:43;;;;;;;18.13;3.38;;;5.50;82.80;;;;;;5049991;28;20483;-78
2022/03/29 06:41:10;;;;;;;20.63;3.42;;;5.60;82.60;;;;;;5052390;28;20387;-78
2022/03/29 06:43:36;;;;;;;21.73;3.08;;;5.60;82.50;;;;;;5060703;28;20020;-78
2022/03/29 06:46:03;;;;;;;21.17;3.40;;;5.80;82.30;;;;;;5044738;28;20028;-78
2022/03/29 06:48:29;;;;;;;24.83;4.25;;;5.80;81.80;;;;;;5059658;28;20029;-78
2022/03/29 06:50:55;;;;;;;28.27;3.90;;;5.80;81.30;;;;;;5043309;28;20048;-78
2022/03/29 06:53:20;;;;;;;21.60;3.85;;;6.00;80.90;;;;;;5069965;28;20029;-78
2022/03/29 06:55:46;;;;;;;19.30;3.60;;;6.10;80.60;;;;;;5053444;28;20488;-78
2022/03/29 06:58:11;;;;;;;15.93;3.60;;;6.10;80.40;;;;;;5067554;28;20036;-79
2022/03/29 07:00:37;;;;;;;20.88;3.67;;;6.10;80.30;;;;;;5069485;28;20391;-79
2022/03/29 07:03:02;;;;;;;20.38;3.50;;;6.30;80.00;;;;;;5046038;28;20175;-79
2022/03/29 07:05:28;;;;;;;22.23;3.88;;;6.30;79.40;;;;;;5051403;28;20035;-79
2022/03/29 07:07:54;;;;;;;20.15;3.38;;;6.20;78.90;;;;;;5068678;28;20032;-80
2022/03/29 07:13:05;;;;;;;21.75;3.75;;;6.30;79.00;;;;;;5068650;28;20031;-80
2022/03/29 07:15:31;;;;;;;18.50;3.53;;;6.40;78.60;;;;;;5052270;28;20021;-80
2022/03/29 07:17:57;;;;;;;14.10;3.03;;;6.50;78.30;;;;;;5068654;28;20024;-80
2022/03/29 07:20:23;;;;;;;17.08;3.53;;;6.40;78.10;;;;;;5060119;28;20028;-80
2022/03/29 07:22:50;;;;;;;16.10;2.97;;;6.40;78.40;;;;;;5057914;28;20024;-80
2022/03/29 07:25:20;;;;;;;17.67;3.28;;;6.60;78.20;;;;;;5076963;28;20073;-80
2022/03/29 07:27:47;;;;;;;11.63;3.50;;;6.50;77.10;;;;;;5068713;28;20089;-80
2022/03/29 07:30:13;;;;;;;20.77;3.58;;;6.40;76.90;;;;;;5063304;28;20029;-80
2022/03/29 07:32:50;;;;;;;16.00;3.25;;;6.40;76.00;;;;;;5056530;28;20039;-80
2022/03/29 07:35:18;;;;;;;20.27;3.05;;;6.30;76.30;;;;;;5072004;28;20063;-80
2022/03/29 07:37:44;;;;;;;14.13;3.08;;;6.30;76.00;;;;;;5049582;28;20085;-80
2022/03/29 07:40:15;;;;;;;15.60;3.10;;;6.30;75.60;;;;;;5074330;28;20032;-80
2022/03/29 07:42:41;;;;;;;18.08;3.40;;;6.40;75.50;;;;;;5077102;28;20067;-80
2022/03/29 07:45:09;;;;;;;19.05;2.85;;;6.40;75.30;;;;;;5071038;28;20060;-80
2022/03/29 07:47:34;;;;;;;16.20;3.03;;;6.60;75.40;;;;;;5043812;28;20383;-80
2022/03/29 07:50:05;;;;;;;13.52;3.08;;;6.60;74.10;;;;;;5073886;28;20076;-80
2022/03/29 07:52:31;;;;;;;14.93;2.63;;;6.70;74.10;;;;;;5067813;28;20548;-80
2022/03/29 07:54:56;;;;;;;17.13;2.90;;;6.80;72.60;;;;;;5050389;28;20036;-80
2022/03/29 07:57:21;;;;;;;13.02;3.30;;;7.00;73.50;;;;;;5055021;28;20036;-80
2022/03/29 07:59:47;;;;;;;21.05;2.92;;;6.90;73.10;;;;;;5046147;28;20379;-80
2022/03/29 08:02:12;;;;;;;14.52;2.70;;;7.00;73.00;;;;;;5063583;28;20024;-80
2022/03/29 08:04:38;;;;;;;17.02;3.00;;;7.20;72.70;;;;;;5056414;28;20042;-80
2022/03/29 08:07:04;;;;;;;17.45;3.00;;;7.20;71.60;;;;;;5062873;28;20032;-80
2022/03/29 08:09:29;;;;;;;18.23;3.03;;;7.10;71.50;;;;;;5070668;28;20032;-80
2022/03/29 08:11:55;;;;;;;19.52;2.95;;;7.40;71.70;;;;;;5053956;28;20029;-80
2022/03/29 08:14:25;;;;;;;9.98;2.70;;;7.50;70.60;;;;;;5068375;28;20043;-80
2022/03/29 08:16:53;;;;;;;9.02;2.20;;;7.40;70.30;;;;;;5048535;28;20025;-80
2022/03/29 08:19:18;;;;;;;14.52;2.72;;;7.50;69.70;;;;;;5064672;28;20047;-80
2022/03/29 08:21:50;;;;;;;12.60;2.63;;;7.50;69.50;;;;;;5065883;28;20024;-80
2022/03/29 08:24:21;;;;;;;13.65;2.58;;;7.70;69.20;;;;;;5059500;28;20429;-80
2022/03/29 08:26:48;;;;;;;14.05;2.72;;;7.60;68.80;;;;;;5053517;28;20476;-80
2022/03/29 08:29:15;;;;;;;16.85;3.53;;;7.80;68.70;;;;;;5077347;28;20039;-80
2022/03/29 08:31:41;;;;;;;16.70;3.42;;;8.00;68.90;;;;;;5067908;28;20029;-81
2022/03/29 08:34:07;;;;;;;12.65;2.45;;;8.10;68.30;;;;;;5051125;28;20025;-81
2022/03/29 08:36:33;;;;;;;15.63;2.95;;;7.80;67.10;;;;;;5064747;28;20532;-81
2022/03/29 08:38:58;;;;;;;11.77;2.63;;;8.00;67.50;;;;;;5072192;28;20036;-81
2022/03/29 08:41:28;;;;;;;15.82;2.80;;;8.10;67.00;;;;;;5065456;28;20442;-80
2022/03/29 08:43:54;;;;;;;14.18;2.60;;;8.20;66.70;;;;;;5068729;28;20031;-80
2022/03/29 08:46:20;;;;;;;13.98;3.05;;;8.50;66.00;;;;;;5072346;28;20403;-80
2022/03/29 08:48:49;;;;;;;13.27;2.55;;;8.40;66.40;;;;;;5058227;28;20024;-80
2022/03/29 08:51:15;;;;;;;11.80;2.60;;;8.30;66.40;;;;;;5054294;28;20119;-81
2022/03/29 08:53:44;;;;;;;14.57;2.80;;;8.10;65.70;;;;;;5055103;28;20127;-81
2022/03/29 08:56:10;;;;;;;13.98;2.30;;;7.80;66.40;;;;;;5055599;28;20024;-81
2022/03/29 08:58:35;;;;;;;15.98;3.08;;;7.70;66.60;;;;;;5052596;28;20040;-81
2022/03/29 09:01:06;;;;;;;13.32;2.20;;;8.10;66.90;;;;;;5058113;28;20119;-81
2022/03/29 09:03:32;;;;;;;11.23;2.25;;;8.60;66.00;;;;;;5062138;28;20530;-81
2022/03/29 09:06:08;;;;;;;12.82;2.60;;;8.90;64.20;;;;;;5053983;28;20109;-81
2022/03/29 09:08:47;;;;;;;17.30;2.85;;;8.30;64.70;;;;;;5070074;28;20469;-81
2022/03/29 09:11:14;;;;;;;14.63;2.60;;;8.30;63.70;;;;;;5054721;28;20610;-81
2022/03/29 09:13:40;;;;;;;11.45;2.20;;;8.30;63.20;;;;;;5052546;28;20074;-82
2022/03/29 09:16:08;;;;;;;12.80;2.40;;;9.00;63.60;;;;;;5054795;28;20438;-82
2022/03/29 09:18:34;;;;;;;11.60;2.22;;;9.00;62.70;;;;;;5057196;28;20558;-81
2022/03/29 09:21:18;;;;;;;9.02;2.53;;;9.10;62.20;;;;;;5068371;28;20456;-81
2022/03/29 09:24:02;;;;;;;13.25;2.53;;;9.60;61.40;;;;;;5054670;28;20025;-82
2022/03/29 09:26:30;;;;;;;6.93;2.40;;;9.90;62.30;;;;;;5052180;28;20401;-81
2022/03/29 09:28:56;;;;;;;14.23;3.08;;;9.30;60.80;;;;;;5051899;28;20043;-81
2022/03/29 09:31:23;;;;;;;14.23;2.00;;;9.30;62.00;;;;;;5054070;28;20142;-81
2022/03/29 09:33:49;;;;;;;15.90;2.83;;;9.50;60.80;;;;;;5072873;28;20032;-81
2022/03/29 09:36:20;;;;;;;14.32;2.40;;;9.30;62.20;;;;;;5070856;28;20385;-81
2022/03/29 09:38:47;;;;;;;8.45;2.47;;;9.10;62.80;;;;;;5053068;28;20361;-81
2022/03/29 09:41:28;;;;;;;9.20;2.53;;;9.10;62.20;;;;;;5058283;28;20069;-81
2022/03/29 09:44:09;;;;;;;14.77;2.28;;;9.80;60.90;;;;;;5058923;28;20059;-81
2022/03/29 09:46:55;;;;;;;10.55;2.55;;;9.90;61.10;;;;;;5056938;28;20029;-81
2022/03/29 09:49:21;;;;;;;12.77;2.33;;;9.50;60.40;;;;;;5050398;28;20037;-81
2022/03/29 09:51:48;;;;;;;12.07;2.97;;;9.60;60.00;;;;;;5055545;28;20058;-81
2022/03/29 09:54:14;;;;;;;14.35;2.45;;;9.80;61.10;;;;;;5063225;28;20028;-81
2022/03/29 09:56:39;;;;;;;10.60;2.47;;;10.00;60.10;;;;;;5044632;28;20020;-81
2022/03/29 09:59:10;;;;;;;9.57;1.95;;;10.30;59.00;;;;;;5071363;28;20069;-81
2022/03/29 10:01:54;;;;;;;;;;;9.90;60.30;;;;;;5089996;28;20025;-82
2022/03/29 10:04:21;;;;;;;8.90;2.15;;;9.50;59.70;;;;;;5059044;28;19910;-81
2022/03/29 10:06:48;;;;;;;8.85;2.70;;;9.60;60.00;;;;;;5064265;28;20025;-81
2022/03/29 10:09:27;;;;;;;11.77;2.38;;;10.10;59.90;;;;;;5074807;28;20100;-81
2022/03/29 10:11:59;;;;;;;11.48;2.20;;;9.90;59.00;;;;;;5063741;28;20455;-81
2022/03/29 10:14:26;;;;;;;8.60;2.10;;;10.00;57.00;;;;;;5051335;28;20639;-81
2022/03/29 10:16:56;;;;;;;6.32;1.92;;;10.20;56.90;;;;;;5069312;28;20062;-81
2022/03/29 10:19:22;;;;;;;12.93;2.60;;;10.40;56.10;;;;;;5080756;28;20471;-81
2022/03/29 10:21:48;;;;;;;12.55;2.58;;;10.30;57.30;;;;;;5092433;28;20023;-81
2022/03/29 10:24:16;;;;;;;13.43;1.85;;;10.60;57.20;;;;;;5086381;28;20020;-81
2022/03/29 10:26:44;;;;;;;8.27;2.00;;;10.70;57.40;;;;;;5066949;28;20035;-81
2022/03/29 10:29:10;;;;;;;15.95;2.55;;;10.40;56.80;;;;;;5060825;28;20036;-81
2022/03/29 10:31:49;;;;;;;8.55;2.15;;;10.30;57.40;;;;;;5057016;28;20115;-81
2022/03/29 10:34:21;;;;;;;9.40;2.17;;;10.50;57.00;;;;;;5069374;28;20448;-81
2022/03/29 10:37:03;;;;;;;10.63;2.70;;;10.80;56.20;;;;;;5045826;28;20075;-81
2022/03/29 10:39:45;;;;;;;8.25;2.00;;;10.90;55.90;;;;;;5073886;28;20058;-81
2022/03/29 10:42:31;;;;;;;8.77;2.38;;;10.90;57.70;;;;;;5059439;28;20025;-81
2022/03/29 10:45:07;;;;;;;11.52;3.00;;;10.90;55.60;;;;;;5053224;28;20052;-81
2022/03/29 10:47:33;;;;;;;9.98;2.67;;;11.20;56.30;;;;;;5055286;28;20054;-81
2022/03/29 10:50:00;;;;;;;6.00;2.03;;;11.70;56.20;;;;;;5054818;28;20470;-81
2022/03/29 10:52:27;;;;;;;13.77;2.80;;;11.50;54.50;;;;;;5076803;28;21443;-81
2022/03/29 10:55:17;;;;;;;10.35;2.53;;;10.90;56.20;;;;;;5088322;28;20084;-81
2022/03/29 10:58:06;;;;;;;11.38;2.60;;;10.70;56.50;;;;;;5057002;28;20024;-81
2022/03/29 11:00:34;;;;;;;7.78;2.30;;;11.20;58.20;;;;;;5068799;28;20033;-82
2022/03/29 11:03:20;;;;;;;15.57;3.30;;;11.10;55.90;;;;;;5075421;28;20021;-82
2022/03/29 11:06:10;;;;;;;12.77;2.78;;;10.60;56.80;;;;;;5076606;28;20096;-82
2022/03/29 11:08:38;;;;;;;12.40;2.85;;;11.00;57.30;;;;;;5055520;28;20032;-81
2022/03/29 11:11:05;;;;;;;10.98;2.95;;;11.30;56.60;;;;;;5060158;28;20137;-81
2022/03/29 11:13:37;;;;;;;10.32;2.65;;;11.50;55.90;;;;;;5076856;28;20059;-81
2022/03/29 11:16:30;;;;;;;10.15;2.72;;;11.00;56.40;;;;;;5058795;28;20035;-81
2022/03/29 11:18:56;;;;;;;11.27;2.72;;;11.10;57.60;;;;;;5059563;28;20078;-81
2022/03/29 11:21:33;;;;;;;10.35;2.38;;;11.10;58.00;;;;;;5062356;28;20021;-81
2022/03/29 11:24:00;;;;;;;10.35;3.08;;;10.90;57.40;;;;;;5058512;28;20075;-81
2022/03/29 11:26:27;;;;;;;8.32;3.17;;;10.60;57.20;;;;;;5077067;28;20024;-81
2022/03/29 11:28:55;;;;;;;13.48;3.22;;;10.10;58.60;;;;;;5076441;28;20088;-81
2022/03/29 11:31:22;;;;;;;10.35;2.90;;;10.90;57.60;;;;;;5056406;28;20484;-81
2022/03/29 11:33:49;;;;;;;13.63;3.03;;;11.00;56.70;;;;;;5075573;28;20029;-81
2022/03/29 11:36:16;;;;;;;12.70;2.90;;;11.00;57.10;;;;;;5058590;28;20063;-81
2022/03/29 11:38:44;;;;;;;8.80;2.85;;;10.90;56.50;;;;;;5058937;28;20024;-81
2022/03/29 11:41:20;;;;;;;10.27;3.00;;;11.00;56.90;;;;;;5077167;28;20515;-81
2022/03/29 11:43:51;;;;;;;10.55;3.35;;;10.90;57.80;;;;;;5057132;28;20021;-81
2022/03/29 11:46:17;;;;;;;9.90;3.35;;;10.60;57.80;;;;;;5076269;28;20016;-81
2022/03/29 11:48:49;;;;;;;9.10;2.95;;;10.30;59.00;;;;;;5076113;28;20099;-81
2022/03/29 11:51:16;;;;;;;12.18;3.22;;;10.50;58.40;;;;;;5057239;28;20021;-81
2022/03/29 11:53:41;;;;;;;13.30;3.63;;;10.30;58.60;;;;;;5058326;28;20024;-81
2022/03/29 11:56:10;;;;;;;13.63;3.13;;;10.30;58.20;;;;;;5073953;28;20519;-81
2022/03/29 11:58:41;;;;;;;11.55;4.00;;;10.20;58.80;;;;;;5058568;28;20896;-81
2022/03/29 12:01:15;;;;;;;8.77;3.40;;;10.20;58.10;;;;;;5075911;28;20047;-81
2022/03/29 12:03:44;;;;;;;12.27;3.38;;;10.90;56.70;;;;;;5064155;28;20050;-81
2022/03/29 12:06:22;;;;;;;10.65;3.10;;;10.90;56.80;;;;;;5063261;28;20104;-81
2022/03/29 12:09:06;;;;;;;8.60;2.67;;;11.10;56.90;;;;;;5072010;28;20122;-81
2022/03/29 12:11:37;;;;;;;11.60;3.10;;;10.60;57.60;;;;;;5075642;28;20043;-81
2022/03/29 12:14:02;;;;;;;9.95;2.70;;;10.20;58.40;;;;;;5074580;28;20032;-81
2022/03/29 12:16:29;;;;;;;10.23;3.00;;;10.30;58.50;;;;;;5068583;28;20520;-81
2022/03/29 12:18:55;;;;;;;9.43;2.90;;;10.60;59.30;;;;;;5090794;28;21064;-81
2022/03/29 12:21:23;;;;;;;12.57;3.35;;;10.70;58.40;;;;;;5058443;28;20028;-81
2022/03/29 12:23:56;;;;;;;11.20;2.88;;;10.30;59.10;;;;;;5063472;28;20024;-81
2022/03/29 12:26:23;;;;;;;9.80;2.90;;;10.30;59.60;;;;;;5057736;28;20032;-81
2022/03/29 12:28:48;;;;;;;9.85;2.28;;;10.20;59.70;;;;;;5062786;28;20579;-80
2022/03/29 12:31:16;;;;;;;8.10;2.20;;;10.50;58.70;;;;;;5074855;28;20055;-81
2022/03/29 12:33:42;;;;;;;8.25;2.00;;;10.30;58.50;;;;;;5058677;28;20032;-81
2022/03/29 12:36:11;;;;;;;8.32;2.17;;;10.90;56.60;;;;;;5074045;28;20185;-80
2022/03/29 12:38:49;;;;;;;9.35;2.80;;;11.70;55.50;;;;;;5057760;28;20025;-80
2022/03/29 12:41:46;;;;;;;14.07;3.05;;;11.90;53.50;;;;;;5070143;28;20024;-81
2022/03/29 12:44:14;;;;;;;8.82;2.35;;;12.40;53.10;;;;;;5067634;28;20032;-80
2022/03/29 12:46:43;;;;;;;8.07;2.50;;;13.20;51.40;;;;;;5056830;28;20062;-80
2022/03/29 12:49:09;;;;;;;9.75;2.22;;;11.80;52.90;;;;;;5068941;28;20028;-80
2022/03/29 12:51:39;;;;;;;10.73;2.60;;;12.10;53.40;;;;;;5053348;28;20040;-80
2022/03/29 12:54:07;;;;;;;8.77;2.47;;;11.60;54.90;;;;;;5055307;28;20037;-80
2022/03/29 12:56:39;;;;;;;10.32;2.47;;;11.50;56.20;;;;;;5075921;28;20491;-81